M I D A S
Marine Information and Data Acquisition System
Tripno 631 of the Zeeleeuw from 2004-01-21 07:43:08 to 2004-01-21 15:52:35
Back to CruiseResearch ActivitiesStationsMapUnderway DataData graphs

EquipmentUnitsComment
TimeDGPSUTC
LatitudeDGPSDM.mWGS84
LongitudeDGPSDM.mWGS84
HeadingGyrodeg 
SOGDGPSknotsSpeed over ground
COGDGPSdegCourse over ground
DepthEcho soundermeters200 kHz
Missing or incorrect values are displayed as -999
Navigation data collected by the RV Zeeleeuw from 2004-01-21 07:43:08 to 2004-01-21 15:52:35
                                                                                    Next 1000 lines
Time Latitude Longitude Heading SOG COG Depth
2004-01-21 07:43:15 51°13.934 2°55.55 341.8 7.4 336 9.4
2004-01-21 07:43:19 51°13.941 2°55.544 341.8 7.4 336 9.3
2004-01-21 07:43:23 51°13.949 2°55.539 341.5 7.5 337 9.4
2004-01-21 07:43:28 51°13.958 2°55.533 341.6 7.5 337 9.3
2004-01-21 07:43:35 51°13.972 2°55.524 341.8 7.6 338 9.2
2004-01-21 07:43:39 51°13.979 2°55.519 341.9 7.5 338 9.6
2004-01-21 07:43:45 51°13.991 2°55.511 341.8 7.5 337 9.1
2004-01-21 07:43:49 51°13.998 2°55.506 341.5 7.5 337 9
2004-01-21 07:43:55 51°14.01 2°55.498 341.5 7.5 337 9
2004-01-21 07:43:59 51°14.017 2°55.493 341.5 7.4 337 8.8
2004-01-21 07:44:03 51°14.025 2°55.488 341.5 7.4 337 8.8
2004-01-21 07:44:10 51°14.038 2°55.479 341.1 7.4 337 8.7
2004-01-21 07:44:15 51°14.048 2°55.473 341 7.6 336 8.7
2004-01-21 07:44:20 51°14.057 2°55.466 340.4 7.7 336 8.6
2004-01-21 07:44:24 51°14.065 2°55.46 340.2 7.7 336 8.6
2004-01-21 07:44:30 51°14.077 2°55.452 340.2 7.7 336 8.5
2004-01-21 07:44:35 51°14.087 2°55.444 340.4 7.9 335 8.5
2004-01-21 07:44:39 51°14.095 2°55.439 340.4 7.9 336 8.5
2004-01-21 07:44:43 51°14.103 2°55.433 340.4 8 335 8.5
2004-01-21 07:44:50 51°14.117 2°55.422 340 8.2 335 8.6
2004-01-21 07:44:55 51°14.128 2°55.413 339.4 8.6 334 8.6
2004-01-21 07:44:59 51°14.136 2°55.406 338.9 8.8 333 9.2
2004-01-21 07:45:03 51°14.145 2°55.399 338.3 9 333 8.8
2004-01-21 07:45:07 51°14.154 2°55.392 337.8 9.2 333 9
2004-01-21 07:45:15 51°14.173 2°55.376 337.2 9.4 332 9.7
2004-01-21 07:45:20 51°14.184 2°55.365 336.7 9.7 331 9.2
2004-01-21 07:45:25 51°14.196 2°55.355 336.6 9.8 331 9.5
2004-01-21 07:45:30 51°14.208 2°55.344 336.2 9.9 330 9.3
2004-01-21 07:45:35 51°14.22 2°55.331 335.2 10 329 9.4
2004-01-21 07:45:39 51°14.229 2°55.32 331.9 10.3 324 9.3
2004-01-21 07:45:44 51°14.24 2°55.306 329 10.4 321 9.3
2004-01-21 07:45:47 51°14.246 2°55.296 325.1 10.4 316 9.3
2004-01-21 07:45:55 51°14.263 2°55.269 321.8 10.7 314 9.4
2004-01-21 07:45:59 51°14.27 2°55.255 319.2 10.7 312 9.5
2004-01-21 07:46:03 51°14.278 2°55.241 316.7 10.7 310 9.5
2004-01-21 07:46:09 51°14.29 2°55.219 315.5 10.8 310 9.5
2004-01-21 07:46:15 51°14.301 2°55.196 314.6 10.8 309 9.4
2004-01-21 07:46:19 51°14.309 2°55.182 314.4 10.8 310 9.5
2004-01-21 07:46:24 51°14.318 2°55.162 313.7 11 308 9.5
2004-01-21 07:46:30 51°14.328 2°55.139 311.5 11.1 306 9.6
2004-01-21 07:46:35 51°14.337 2°55.118 309.9 11.2 305 9.6
2004-01-21 07:46:40 51°14.346 2°55.097 309.2 11.3 304 9.7
2004-01-21 07:46:43 51°14.351 2°55.084 308.4 11.6 303 9.5
2004-01-21 07:46:49 51°14.36 2°55.057 306.7 11.6 299 9.6
2004-01-21 07:46:55 51°14.368 2°55.029 303.5 11.8 293 9.7
2004-01-21 07:47:00 51°14.373 2°55.004 299.6 11.9 290 9.7
2004-01-21 07:47:05 51°14.377 2°54.978 295.2 12 286 9.6
2004-01-21 07:47:09 51°14.381 2°54.957 291.4 12.2 284 9.6
2004-01-21 07:47:15 51°14.386 2°54.925 290.3 12.3 284 9.7
2004-01-21 07:47:19 51°14.389 2°54.904 289.9 12.5 283 9.7
2004-01-21 07:47:23 51°14.392 2°54.882 288.8 12.7 281 9.8
2004-01-21 07:47:30 51°14.396 2°54.843 288.1 12.8 280 9.9
2004-01-21 07:47:35 51°14.398 2°54.815 286.9 12.8 280 9.8
2004-01-21 07:47:39 51°14.399 2°54.792 284.5 13.1 275 10
2004-01-21 07:47:43 51°14.4 2°54.768 280.6 13.2 272 9.8
2004-01-21 07:47:49 51°14.399 2°54.733 276.3 13.3 269 9.8
2004-01-21 07:47:55 51°14.397 2°54.697 273.5 13.6 266 9.9
2004-01-21 07:47:59 51°14.396 2°54.673 271.8 13.7 265 9.9
2004-01-21 07:48:03 51°14.394 2°54.649 270.7 13.8 264 9.9
2004-01-21 07:48:09 51°14.391 2°54.613 268 13.8 262 9.9
2004-01-21 07:48:15 51°14.385 2°54.576 266.1 14 257 9.8
2004-01-21 07:48:20 51°14.38 2°54.546 262.5 14 255 9.4
2004-01-21 07:48:25 51°14.374 2°54.517 259.8 14.1 253 9.1
2004-01-21 07:48:30 51°14.368 2°54.487 257.6 14.1 253 8.9
2004-01-21 07:48:35 51°14.362 2°54.458 256.6 14 251 8.8
2004-01-21 07:48:39 51°14.357 2°54.435 255.8 14 250 8.7
2004-01-21 07:48:43 51°14.351 2°54.412 254.7 14 248 8.6
2004-01-21 07:48:50 51°14.339 2°54.372 252 14.1 247 8.6
2004-01-21 07:48:55 51°14.33 2°54.345 248.5 14.1 242 8.5
2004-01-21 07:49:00 51°14.32 2°54.318 246.1 14.1 241 8.5
2004-01-21 07:49:05 51°14.31 2°54.291 244.5 14.1 239 8.5
2004-01-21 07:49:07 51°14.306 2°54.28 242.8 14.2 239 8.4
2004-01-21 07:49:15 51°14.289 2°54.238 241.6 14.2 238 8.4
2004-01-21 07:49:19 51°14.28 2°54.217 240.8 14.2 236 8.4
2004-01-21 07:49:25 51°14.267 2°54.185 239.5 14.4 238 8.3
2004-01-21 07:49:30 51°14.257 2°54.158 241.3 14.3 238 8.3
2004-01-21 07:49:35 51°14.248 2°54.13 242.8 14.3 240 8.3
2004-01-21 07:49:40 51°14.238 2°54.103 244 14.4 240 8.3
2004-01-21 07:49:44 51°14.23 2°54.081 244 14.3 240 8.2
2004-01-21 07:49:50 51°14.218 2°54.048 243.8 14.3 239 8.3
2004-01-21 07:49:55 51°14.207 2°54.022 242.5 14.2 239 8.3
2004-01-21 07:49:59 51°14.199 2°54.001 241.3 14.2 237 8.2
2004-01-21 07:50:05 51°14.185 2°53.97 240.2 14.2 235 8.2
2004-01-21 07:50:10 51°14.174 2°53.943 239 14.4 236 8.2
2004-01-21 07:50:15 51°14.162 2°53.918 238.3 14.3 235 8.2
2004-01-21 07:50:19 51°14.153 2°53.898 237.3 14.3 234 8.2
2004-01-21 07:50:25 51°14.138 2°53.867 237.1 14.3 233 8.2
2004-01-21 07:50:30 51°14.127 2°53.842 236.8 14.3 234 8.2
2004-01-21 07:50:35 51°14.115 2°53.816 237 14.2 233 8.2
2004-01-21 07:50:40 51°14.103 2°53.79 237.5 14.4 235 8.2
2004-01-21 07:50:43 51°14.097 2°53.775 238.5 14.4 235 8.2
2004-01-21 07:50:50 51°14.082 2°53.737 239.5 14.3 238 8.2
2004-01-21 07:50:55 51°14.072 2°53.709 241.5 14.4 240 8.3
2004-01-21 07:51:00 51°14.062 2°53.681 243.2 14.4 240 8.3
2004-01-21 07:51:03 51°14.057 2°53.664 244.6 14.4 240 8.3
2004-01-21 07:51:10 51°14.043 2°53.625 246 14.4 242 8.3
2004-01-21 07:51:15 51°14.035 2°53.597 246 14.4 243 8.4
2004-01-21 07:51:20 51°14.026 2°53.568 247.1 14.4 244 8.4
2004-01-21 07:51:23 51°14.02 2°53.551 247.4 14.4 243 8.4
2004-01-21 07:51:30 51°14.007 2°53.511 247.3 14.5 243 8.5
2004-01-21 07:51:35 51°13.998 2°53.483 247.3 14.5 242 8.5
2004-01-21 07:51:40 51°13.988 2°53.455 246.7 14.5 242 8.5
2004-01-21 07:51:45 51°13.978 2°53.427 246.1 14.5 241 8.5
2004-01-21 07:51:50 51°13.969 2°53.399 245.1 14.6 241 8.5
2004-01-21 07:51:55 51°13.958 2°53.371 244.7 14.5 239 8.5
2004-01-21 07:51:59 51°13.951 2°53.349 243.8 14.5 239 8.6
2004-01-21 07:52:03 51°13.942 2°53.327 244 14.5 240 8.6
2004-01-21 07:52:08 51°13.933 2°53.298 244.1 14.5 241 8.6
2004-01-21 07:52:15 51°13.919 2°53.259 244.2 14.6 241 8.5
2004-01-21 07:52:19 51°13.911 2°53.237 244.5 14.6 241 8.6
2004-01-21 07:52:23 51°13.903 2°53.214 245 14.6 241 8.7
2004-01-21 07:52:27 51°13.896 2°53.191 245.1 14.6 242 8.6
2004-01-21 07:52:35 51°13.881 2°53.146 245.9 14.6 243 8.8
2004-01-21 07:52:40 51°13.871 2°53.117 246.3 14.6 242 8.8
2004-01-21 07:52:43 51°13.866 2°53.1 246.5 14.7 243 8.8
2004-01-21 07:52:50 51°13.853 2°53.06 247.3 14.6 243 8.8
2004-01-21 07:52:55 51°13.844 2°53.031 246.7 14.7 243 8.9
2004-01-21 07:52:59 51°13.836 2°53.008 247 14.7 242 8.9
2004-01-21 07:53:03 51°13.828 2°52.985 246.7 14.7 243 8.9
2004-01-21 07:53:09 51°13.817 2°52.95 246.6 14.7 242 8.9
2004-01-21 07:53:15 51°13.805 2°52.916 246 14.7 241 9
2004-01-21 07:53:19 51°13.797 2°52.893 245.7 14.7 242 9
2004-01-21 07:53:23 51°13.789 2°52.871 245.3 14.8 241 9
2004-01-21 07:53:29 51°13.777 2°52.836 245.3 14.8 241 9
2004-01-21 07:53:35 51°13.766 2°52.801 245.7 14.8 242 9.1
2004-01-21 07:53:39 51°13.759 2°52.778 246.1 14.8 243 9.1
2004-01-21 07:53:43 51°13.751 2°52.755 246.6 14.8 243 9.1
2004-01-21 07:53:50 51°13.738 2°52.714 246.7 14.9 243 9.2
2004-01-21 07:53:55 51°13.729 2°52.685 247.4 14.7 243 9.2
2004-01-21 07:54:00 51°13.719 2°52.656 247.3 14.8 243 9.2
2004-01-21 07:54:03 51°13.714 2°52.638 246.8 14.8 243 9.2
2004-01-21 07:54:10 51°13.701 2°52.598 247.1 14.8 243 9.2
2004-01-21 07:54:15 51°13.692 2°52.568 247 14.8 243 9.3
2004-01-21 07:54:19 51°13.684 2°52.545 247.1 14.9 243 9.3
2004-01-21 07:54:23 51°13.676 2°52.522 247 14.8 243 9.3
2004-01-21 07:54:30 51°13.663 2°52.481 247.1 14.9 242 9.4
2004-01-21 07:54:35 51°13.654 2°52.452 246.8 14.8 243 9.3
2004-01-21 07:54:40 51°13.644 2°52.423 246.9 14.8 242 9.3
2004-01-21 07:54:43 51°13.639 2°52.405 246.8 14.9 243 9.5
2004-01-21 07:54:50 51°13.626 2°52.365 246.6 14.9 242 9.6
2004-01-21 07:54:55 51°13.616 2°52.335 246.6 14.9 242 9.6
2004-01-21 07:55:00 51°13.606 2°52.306 246.4 14.9 242 9.7
2004-01-21 07:55:03 51°13.6 2°52.289 246 14.9 242 9.6
2004-01-21 07:55:10 51°13.586 2°52.248 246 14.9 242 9.7
2004-01-21 07:55:15 51°13.577 2°52.219 245.7 14.9 241 9.6
2004-01-21 07:55:20 51°13.567 2°52.19 245.6 14.9 242 9.7
2004-01-21 07:55:23 51°13.562 2°52.173 246.4 14.8 243 9.7
2004-01-21 07:55:30 51°13.549 2°52.132 246.5 14.9 243 9.7
2004-01-21 07:55:35 51°13.539 2°52.103 247 14.9 243 9.7
2004-01-21 07:55:40 51°13.53 2°52.073 246.9 14.9 244 9.7
2004-01-21 07:55:45 51°13.52 2°52.044 247.2 14.9 243 9.6
2004-01-21 07:55:50 51°13.511 2°52.014 247.5 14.9 243 9.6
2004-01-21 07:55:55 51°13.502 2°51.985 247.5 14.9 243 9.7
2004-01-21 07:56:00 51°13.492 2°51.956 247.7 15 243 9.8
2004-01-21 07:56:03 51°13.487 2°51.938 247.3 15 243 9.7
2004-01-21 07:56:10 51°13.474 2°51.897 247.4 15 242 9.8
2004-01-21 07:56:15 51°13.464 2°51.867 247 14.9 243 9.7
2004-01-21 07:56:19 51°13.456 2°51.844 247 14.9 242 9.7
2004-01-21 07:56:25 51°13.445 2°51.809 246.7 15 242 9.7
2004-01-21 07:56:30 51°13.435 2°51.78 246.7 15 242 9.7
2004-01-21 07:56:35 51°13.425 2°51.751 246.5 15 242 9.8
2004-01-21 07:56:39 51°13.417 2°51.727 246.2 15 242 9.8
2004-01-21 07:56:43 51°13.409 2°51.704 246.2 14.9 242 9.8
2004-01-21 07:56:50 51°13.396 2°51.663 246.1 15 242 9.8
2004-01-21 07:56:55 51°13.386 2°51.633 246.8 14.9 242 9.9
2004-01-21 07:56:59 51°13.378 2°51.61 246.7 15 243 9.8
2004-01-21 07:57:03 51°13.371 2°51.586 246.8 15 242 9.8
2004-01-21 07:57:09 51°13.359 2°51.551 247.2 15 242 9.7
2004-01-21 07:57:15 51°13.347 2°51.515 247 15.1 243 9.7
2004-01-21 07:57:19 51°13.339 2°51.492 247.2 15 242 9.7
2004-01-21 07:57:23 51°13.332 2°51.469 246.2 15 242 9.7
2004-01-21 07:57:27 51°13.324 2°51.445 246.6 14.9 242 9.7
2004-01-21 07:57:35 51°13.308 2°51.399 245.9 15.1 242 9.8
2004-01-21 07:57:40 51°13.298 2°51.369 246 15 242 9.8
2004-01-21 07:57:43 51°13.292 2°51.352 246 15.1 241 9.7
2004-01-21 07:57:49 51°13.28 2°51.316 245.9 15.1 242 9.8
2004-01-21 07:57:55 51°13.268 2°51.281 246.5 15 241 9.8
2004-01-21 07:57:59 51°13.261 2°51.258 246 15.1 243 9.9
2004-01-21 07:58:05 51°13.249 2°51.223 246.7 15 242 9.8
2004-01-21 07:58:10 51°13.239 2°51.193 246.5 15 242 9.8
2004-01-21 07:58:15 51°13.229 2°51.164 246.2 15.1 242 9.9
2004-01-21 07:58:20 51°13.22 2°51.134 246.3 15.1 242 9.9
2004-01-21 07:58:24 51°13.212 2°51.111 246 15.1 242 9.9
2004-01-21 07:58:28 51°13.204 2°51.087 246 15.1 242 10
2004-01-21 07:58:35 51°13.19 2°51.046 246.1 15.1 242 10
2004-01-21 07:58:39 51°13.182 2°51.023 245.8 15.1 241 10
2004-01-21 07:58:45 51°13.17 2°50.988 245.5 15.1 241 10
2004-01-21 07:58:49 51°13.161 2°50.965 244.9 15.1 240 9.9
2004-01-21 07:58:55 51°13.149 2°50.93 244.3 15.1 240 9.9
2004-01-21 07:58:59 51°13.141 2°50.907 244.5 15 241 10.2
2004-01-21 07:59:04 51°13.13 2°50.878 244.2 15 239 10.1
2004-01-21 07:59:10 51°13.118 2°50.844 243.8 15.1 240 10
2004-01-21 07:59:15 51°13.107 2°50.815 244 15 240 10
2004-01-21 07:59:19 51°13.1 2°50.792 243.8 15 241 10
2004-01-21 07:59:25 51°13.087 2°50.757 244.2 15 240 10
2004-01-21 07:59:28 51°13.081 2°50.74 244.2 15 241 10.1
2004-01-21 07:59:35 51°13.067 2°50.7 244.3 15 241 10.1
2004-01-21 07:59:39 51°13.059 2°50.676 244.6 15 241 10.1
2004-01-21 07:59:45 51°13.047 2°50.642 245 14.9 242 10.1
2004-01-21 07:59:49 51°13.038 2°50.619 245.1 15 240 10.1
2004-01-21 07:59:55 51°13.026 2°50.584 244.5 15 241 10.2
2004-01-21 07:59:59 51°13.018 2°50.561 244.4 15 240 10.1
2004-01-21 08:00:05 51°13.006 2°50.526 244.5 15 241 10.1
2004-01-21 08:00:09 51°12.998 2°50.503 244.5 14.9 240 10.1
2004-01-21 08:00:15 51°12.986 2°50.468 244.4 15 241 10.2
2004-01-21 08:00:19 51°12.978 2°50.445 244.4 15.1 241 10.1
2004-01-21 08:00:23 51°12.97 2°50.422 244.6 15 241 10.2
2004-01-21 08:00:30 51°12.956 2°50.381 245.1 15 241 10.2
2004-01-21 08:00:35 51°12.946 2°50.352 244.8 15 241 10.2
2004-01-21 08:00:40 51°12.935 2°50.323 244.5 15 241 10.2
2004-01-21 08:00:45 51°12.925 2°50.294 244.5 15 240 10.2
2004-01-21 08:00:48 51°12.919 2°50.277 244.3 15.1 240 10.2
2004-01-21 08:00:55 51°12.904 2°50.237 243.8 15 240 10.3
2004-01-21 08:00:59 51°12.896 2°50.214 243.8 15 240 10.3
2004-01-21 08:01:03 51°12.888 2°50.191 243.3 15.1 240 10.4
2004-01-21 08:01:09 51°12.876 2°50.156 244.1 15 240 10.3
2004-01-21 08:01:15 51°12.864 2°50.121 244.2 15 241 10.3
2004-01-21 08:01:20 51°12.854 2°50.092 244.3 15 241 10.3
2004-01-21 08:01:25 51°12.844 2°50.063 244.7 15 241 10.3
2004-01-21 08:01:30 51°12.834 2°50.034 245 15 241 10.3
2004-01-21 08:01:35 51°12.824 2°50.005 244.9 15 241 10.3
2004-01-21 08:01:39 51°12.816 2°49.982 244.9 15 240 10.4
2004-01-21 08:01:43 51°12.808 2°49.958 244.3 15 241 10.4
2004-01-21 08:01:47 51°12.8 2°49.935 244.4 15 240 10.4
2004-01-21 08:01:55 51°12.783 2°49.889 244 15.1 241 10.4
2004-01-21 08:01:59 51°12.775 2°49.866 244.6 15 241 10.4
2004-01-21 08:02:03 51°12.767 2°49.842 244.2 15 241 10.5
2004-01-21 08:02:10 51°12.753 2°49.802 244.5 15 242 10.4
2004-01-21 08:02:15 51°12.744 2°49.773 244.7 15 242 10.4
2004-01-21 08:02:19 51°12.735 2°49.75 244.7 14.9 241 10.4
2004-01-21 08:02:23 51°12.727 2°49.727 244.4 15.1 241 10.4
2004-01-21 08:02:30 51°12.713 2°49.686 244.5 15 241 10.4
2004-01-21 08:02:35 51°12.703 2°49.658 244.6 14.9 241 10.5
2004-01-21 08:02:39 51°12.695 2°49.634 244.4 15 241 10.5
2004-01-21 08:02:45 51°12.683 2°49.599 244.2 15 241 10.5
2004-01-21 08:02:50 51°12.673 2°49.571 244.6 15 241 10.5
2004-01-21 08:02:53 51°12.667 2°49.553 244.5 15 241 10.5
2004-01-21 08:02:59 51°12.655 2°49.519 244.8 15 240 10.5
2004-01-21 08:03:05 51°12.643 2°49.484 244.6 15 241 10.6
2004-01-21 08:03:10 51°12.633 2°49.455 244.5 15 241 10.6
2004-01-21 08:03:15 51°12.623 2°49.427 244.2 15 240 10.6
2004-01-21 08:03:19 51°12.615 2°49.404 244 14.9 241 10.7
2004-01-21 08:03:25 51°12.602 2°49.369 244.1 14.9 240 10.6
2004-01-21 08:03:29 51°12.594 2°49.346 243.8 15 241 10.6
2004-01-21 08:03:35 51°12.583 2°49.312 244.6 14.8 241 10.7
2004-01-21 08:03:39 51°12.574 2°49.289 244.4 14.9 240 10.7
2004-01-21 08:03:45 51°12.562 2°49.255 244 14.8 241 10.7
2004-01-21 08:03:50 51°12.552 2°49.226 244.6 14.8 240 10.7
2004-01-21 08:03:55 51°12.542 2°49.198 243.8 14.8 241 10.7
2004-01-21 08:03:59 51°12.534 2°49.175 244.3 14.8 240 10.7
2004-01-21 08:04:05 51°12.522 2°49.141 244.5 14.8 241 10.7
2004-01-21 08:04:10 51°12.513 2°49.112 244.5 14.7 241 10.7
2004-01-21 08:04:15 51°12.502 2°49.084 244.6 14.8 240 10.7
2004-01-21 08:04:20 51°12.492 2°49.055 244.4 14.8 241 10.7
2004-01-21 08:04:24 51°12.485 2°49.032 244.6 14.8 241 10.7
2004-01-21 08:04:29 51°12.474 2°49.004 244.6 14.8 240 10.7
2004-01-21 08:04:35 51°12.463 2°48.97 245 14.8 242 10.7
2004-01-21 08:04:39 51°12.455 2°48.947 244.9 14.8 241 10.7
2004-01-21 08:04:45 51°12.443 2°48.913 244.5 14.8 241 10.7
2004-01-21 08:04:47 51°12.439 2°48.902 244.7 14.8 242 10.7
2004-01-21 08:04:55 51°12.424 2°48.856 245.1 14.8 242 10.7
2004-01-21 08:04:59 51°12.417 2°48.832 245.9 14.8 244 10.7
2004-01-21 08:05:05 51°12.406 2°48.797 247.5 14.8 244 10.7
2004-01-21 08:05:08 51°12.401 2°48.779 248.5 14.8 246 10.7
2004-01-21 08:05:15 51°12.389 2°48.737 249.1 14.8 246 10.8
2004-01-21 08:05:19 51°12.382 2°48.713 249.5 14.8 245 10.8
2004-01-21 08:05:25 51°12.373 2°48.677 249.8 14.8 246 10.8
2004-01-21 08:05:30 51°12.364 2°48.648 250.2 14.8 246 10.9
2004-01-21 08:05:35 51°12.356 2°48.618 250.4 14.8 246 10.9
2004-01-21 08:05:40 51°12.347 2°48.588 250.1 14.8 245 10.9
2004-01-21 08:05:45 51°12.339 2°48.558 249.4 14.9 246 11
2004-01-21 08:05:48 51°12.333 2°48.54 249.6 14.8 246 11
2004-01-21 08:05:55 51°12.322 2°48.498 249.6 14.9 245 11
2004-01-21 08:05:59 51°12.315 2°48.474 249.5 14.9 246 11
2004-01-21 08:06:05 51°12.305 2°48.438 250.1 14.9 246 11
2004-01-21 08:06:09 51°12.298 2°48.414 250 14.9 246 11.1
2004-01-21 08:06:15 51°12.288 2°48.378 249.6 14.9 246 11.1
2004-01-21 08:06:20 51°12.279 2°48.348 249.5 14.9 245 11.1
2004-01-21 08:06:25 51°12.27 2°48.318 248.9 15 245 11.1
2004-01-21 08:06:30 51°12.262 2°48.288 248.8 14.9 245 11.1
2004-01-21 08:06:35 51°12.253 2°48.258 248.9 14.9 245 11.1
2004-01-21 08:06:40 51°12.245 2°48.228 248.9 15 245 11.1
2004-01-21 08:06:45 51°12.236 2°48.198 249.4 14.9 246 11.2
2004-01-21 08:06:47 51°12.233 2°48.186 249.6 14.9 246 11.2
2004-01-21 08:06:55 51°12.219 2°48.138 249.6 14.9 246 11.2
2004-01-21 08:07:00 51°12.211 2°48.107 249.7 14.9 246 11.2
2004-01-21 08:07:03 51°12.206 2°48.089 249.5 15 246 11.2
2004-01-21 08:07:10 51°12.195 2°48.046 250.2 15 247 11.4
2004-01-21 08:07:13 51°12.19 2°48.028 251.2 15 248 11.4
2004-01-21 08:07:19 51°12.181 2°47.991 251.7 15 248 11.4
2004-01-21 08:07:24 51°12.174 2°47.961 252.1 14.9 248 11.4
2004-01-21 08:07:29 51°12.166 2°47.93 252.4 14.9 249 11.4
2004-01-21 08:07:35 51°12.157 2°47.894 252.5 15 248 11.4
2004-01-21 08:07:40 51°12.15 2°47.863 252.5 14.9 249 11.5
2004-01-21 08:07:43 51°12.145 2°47.844 253.2 14.9 249 11.5
2004-01-21 08:07:47 51°12.139 2°47.82 252.8 14.9 248 11.5
2004-01-21 08:07:55 51°12.127 2°47.771 252.7 14.9 248 11.5
2004-01-21 08:07:59 51°12.121 2°47.746 252.5 14.9 250 11.5
2004-01-21 08:08:05 51°12.112 2°47.709 252.9 14.9 248 11.6
2004-01-21 08:08:10 51°12.105 2°47.679 252.8 14.9 249 11.5
2004-01-21 08:08:15 51°12.098 2°47.648 252.9 14.9 249 11.6
2004-01-21 08:08:20 51°12.09 2°47.617 252.9 14.9 248 11.6
2004-01-21 08:08:25 51°12.083 2°47.586 252.5 15 249 11.7
2004-01-21 08:08:29 51°12.076 2°47.562 252.4 15 248 11.8
2004-01-21 08:08:35 51°12.067 2°47.525 252.5 14.9 249 11.6
2004-01-21 08:08:39 51°12.062 2°47.501 252.3 14.9 249 11.7
2004-01-21 08:08:44 51°12.054 2°47.47 253.2 14.9 250 11.7
2004-01-21 08:08:50 51°12.046 2°47.432 254 14.9 251 11.8
2004-01-21 08:08:55 51°12.04 2°47.401 254.9 14.9 252 11.9
2004-01-21 08:08:59 51°12.035 2°47.376 255.8 15 252 11.9
2004-01-21 08:09:05 51°12.027 2°47.338 255.8 15 252 11.8
2004-01-21 08:09:10 51°12.021 2°47.307 256.2 15 253 12
2004-01-21 08:09:15 51°12.014 2°47.275 256.4 14.9 252 12
2004-01-21 08:09:19 51°12.009 2°47.25 256.1 15 252 12
2004-01-21 08:09:23 51°12.004 2°47.225 256.4 15 252 12
2004-01-21 08:09:27 51°11.999 2°47.2 255.9 15 252 12.1
2004-01-21 08:09:35 51°11.988 2°47.15 255.9 15 252 12
2004-01-21 08:09:39 51°11.983 2°47.124 256.1 15 252 12
2004-01-21 08:09:45 51°11.975 2°47.087 256 15 251 12.1
2004-01-21 08:09:50 51°11.968 2°47.055 255.5 15 252 12.1
2004-01-21 08:09:55 51°11.961 2°47.024 255.4 15 252 12.1
2004-01-21 08:09:59 51°11.956 2°46.999 255.4 15 251 12.1
2004-01-21 08:10:05 51°11.948 2°46.961 255.4 15 252 12.2
2004-01-21 08:10:10 51°11.941 2°46.929 255.4 15 251 12.2
2004-01-21 08:10:15 51°11.935 2°46.898 255.4 15.1 252 12.1
2004-01-21 08:10:19 51°11.93 2°46.872 255.6 15.1 252 12.2
2004-01-21 08:10:25 51°11.922 2°46.835 255.6 15.1 252 12.2
2004-01-21 08:10:30 51°11.915 2°46.803 255.8 15.1 251 12.2
2004-01-21 08:10:35 51°11.908 2°46.772 255.7 15.1 251 12.1
2004-01-21 08:10:39 51°11.903 2°46.746 255.8 15.1 251 12.3
2004-01-21 08:10:43 51°11.898 2°46.721 255.4 15.1 251 12.2
2004-01-21 08:10:49 51°11.89 2°46.683 255.4 15.1 252 12.3
2004-01-21 08:10:55 51°11.882 2°46.645 255.6 15.1 252 12.3
2004-01-21 08:10:59 51°11.877 2°46.62 255.5 15.1 252 12.3
2004-01-21 08:11:05 51°11.868 2°46.582 255.4 15 251 12.3
2004-01-21 08:11:09 51°11.863 2°46.557 254.8 15.1 250 12.3
2004-01-21 08:11:15 51°11.855 2°46.519 255.2 15 251 12.4
2004-01-21 08:11:19 51°11.849 2°46.494 255.3 15.1 251 12.4
2004-01-21 08:11:25 51°11.841 2°46.456 255.3 15.1 251 12.4
2004-01-21 08:11:29 51°11.836 2°46.43 255.6 15.1 251 12.4
2004-01-21 08:11:35 51°11.828 2°46.392 255.8 15.1 251 12.4
2004-01-21 08:11:39 51°11.823 2°46.367 255.5 15.2 251 12.4
2004-01-21 08:11:45 51°11.815 2°46.329 255.4 15 252 12.4
2004-01-21 08:11:47 51°11.812 2°46.317 255.9 15 251 12.4
2004-01-21 08:11:55 51°11.802 2°46.266 255.5 15.2 252 12.4
2004-01-21 08:11:59 51°11.796 2°46.24 255.6 15.1 252 12.5
2004-01-21 08:12:05 51°11.788 2°46.203 255.8 15.1 251 12.4
2004-01-21 08:12:10 51°11.782 2°46.171 255.4 15.1 252 12.4
2004-01-21 08:12:15 51°11.775 2°46.139 255.8 15.1 252 12.4
2004-01-21 08:12:19 51°11.769 2°46.114 255.6 15.1 251 12.4
2004-01-21 08:12:25 51°11.762 2°46.076 255.4 15.1 252 12.4
2004-01-21 08:12:29 51°11.757 2°46.05 255.8 15.1 252 12.4
2004-01-21 08:12:34 51°11.75 2°46.019 255.8 15.1 252 12.4
2004-01-21 08:12:40 51°11.742 2°45.981 255.8 15.1 251 12.5
2004-01-21 08:12:45 51°11.736 2°45.949 255.6 15.2 251 12.4
2004-01-21 08:12:50 51°11.729 2°45.917 255.6 15.1 252 12.5
2004-01-21 08:12:55 51°11.722 2°45.886 255.1 15.2 251 12.5
2004-01-21 08:12:59 51°11.717 2°45.86 254.8 15.2 251 12.4
2004-01-21 08:13:05 51°11.709 2°45.822 255.4 15.1 252 12.5
2004-01-21 08:13:10 51°11.702 2°45.79 255.4 15.1 251 12.5
2004-01-21 08:13:15 51°11.695 2°45.759 255.4 15.2 252 12.5
2004-01-21 08:13:20 51°11.689 2°45.727 255.3 15.1 251 12.5
2004-01-21 08:13:25 51°11.682 2°45.696 255.4 15.1 252 12.4
2004-01-21 08:13:29 51°11.677 2°45.67 255.4 15.1 251 12.5
2004-01-21 08:13:33 51°11.672 2°45.645 255.8 15.1 251 12.5
2004-01-21 08:13:39 51°11.664 2°45.607 255.4 15.1 252 12.5
2004-01-21 08:13:44 51°11.657 2°45.575 255.9 15.1 252 12.5
2004-01-21 08:13:50 51°11.65 2°45.537 255.7 15.1 252 12.5
2004-01-21 08:13:55 51°11.643 2°45.506 255.3 15.1 252 12.5
2004-01-21 08:13:59 51°11.637 2°45.48 255.4 15.1 251 12.5
2004-01-21 08:14:05 51°11.63 2°45.442 255.3 15.1 252 12.5
2004-01-21 08:14:10 51°11.623 2°45.411 255.4 15.1 252 12.4
2004-01-21 08:14:15 51°11.616 2°45.379 255.6 15.1 252 12.5
2004-01-21 08:14:19 51°11.611 2°45.354 255.4 15.1 251 12.4
2004-01-21 08:14:25 51°11.603 2°45.315 255.4 15.2 252 12.5
2004-01-21 08:14:30 51°11.597 2°45.284 255.8 15.2 252 12.5
2004-01-21 08:14:35 51°11.59 2°45.252 256.1 15.1 252 12.5
2004-01-21 08:14:39 51°11.585 2°45.227 255.4 15.1 252 12.5
2004-01-21 08:14:45 51°11.577 2°45.189 255.7 15.1 252 12.4
2004-01-21 08:14:50 51°11.571 2°45.157 255.6 15.1 252 12.4
2004-01-21 08:14:55 51°11.564 2°45.125 255.4 15.1 252 12.4
2004-01-21 08:14:59 51°11.559 2°45.1 255.5 15.1 252 12.4
2004-01-21 08:15:03 51°11.554 2°45.075 255.9 15 252 12.5
2004-01-21 08:15:09 51°11.546 2°45.037 256 15.1 251 12.4
2004-01-21 08:15:15 51°11.538 2°44.999 255.2 15.2 251 12.4
2004-01-21 08:15:19 51°11.533 2°44.973 255.8 15.1 252 12.5
2004-01-21 08:15:25 51°11.525 2°44.936 255.4 15.1 252 12.5
2004-01-21 08:15:29 51°11.52 2°44.91 255 15.1 252 12.4
2004-01-21 08:15:35 51°11.512 2°44.872 255.6 15 252 12.4
2004-01-21 08:15:39 51°11.507 2°44.847 255.7 15 252 12.4
2004-01-21 08:15:45 51°11.499 2°44.809 255.1 15.1 252 12.4
2004-01-21 08:15:47 51°11.496 2°44.796 255.3 15.1 252 12.4
2004-01-21 08:15:55 51°11.486 2°44.746 255.4 15.1 252 12.4
2004-01-21 08:15:59 51°11.481 2°44.72 255.8 15.1 253 12.4
2004-01-21 08:16:03 51°11.476 2°44.695 255.8 15.2 252 12.4
2004-01-21 08:16:09 51°11.469 2°44.657 255.5 15.1 253 12.4
2004-01-21 08:16:15 51°11.461 2°44.619 256.2 15.1 253 12.4
2004-01-21 08:16:19 51°11.457 2°44.593 256.9 15 255 12.4
2004-01-21 08:16:23 51°11.452 2°44.568 257.1 15.1 253 12.4
2004-01-21 08:16:28 51°11.446 2°44.535 257.4 15.1 254 12.4
2004-01-21 08:16:35 51°11.438 2°44.49 258 15.1 254 12.4
2004-01-21 08:16:39 51°11.433 2°44.465 257.6 15 254 12.5
2004-01-21 08:16:45 51°11.426 2°44.427 257 15 254 12.4
2004-01-21 08:16:50 51°11.42 2°44.395 256.9 15.1 254 12.4
2004-01-21 08:16:55 51°11.415 2°44.363 257.1 15.1 254 12.4
2004-01-21 08:16:59 51°11.41 2°44.337 257.6 15 253 12.5
2004-01-21 08:17:05 51°11.402 2°44.299 257.2 15 253 12.5
2004-01-21 08:17:09 51°11.398 2°44.274 256.7 15 253 12.5
2004-01-21 08:17:15 51°11.39 2°44.235 256.9 15.1 253 12.4
2004-01-21 08:17:19 51°11.386 2°44.21 257.1 15.1 253 12.4
2004-01-21 08:17:25 51°11.379 2°44.172 257.4 15 254 12.4
2004-01-21 08:17:28 51°11.375 2°44.153 257.5 15 253 12.4
2004-01-21 08:17:35 51°11.367 2°44.108 257.3 15.1 254 12.4
2004-01-21 08:17:39 51°11.362 2°44.082 257.4 15.1 254 12.4
2004-01-21 08:17:43 51°11.358 2°44.056 257.7 15.1 253 12.4
2004-01-21 08:17:47 51°11.353 2°44.031 257.7 15 253 12.4
2004-01-21 08:17:55 51°11.343 2°43.98 257.1 15 254 12.4
2004-01-21 08:17:59 51°11.338 2°43.955 257 15 253 12.4
2004-01-21 08:18:05 51°11.331 2°43.916 257 15.1 254 12.4
2004-01-21 08:18:09 51°11.327 2°43.891 257.7 15.1 254 12.4
2004-01-21 08:18:15 51°11.319 2°43.853 257.7 15 253 12.4
2004-01-21 08:18:19 51°11.315 2°43.827 257.2 15 253 12.4
2004-01-21 08:18:25 51°11.307 2°43.79 256.6 15 251 12.4
2004-01-21 08:18:30 51°11.3 2°43.758 255.4 15 252 12.4
2004-01-21 08:18:35 51°11.294 2°43.727 255.2 15 252 12.4
2004-01-21 08:18:40 51°11.287 2°43.695 255.4 15 252 12.4
2004-01-21 08:18:44 51°11.282 2°43.67 255.5 15 252 12.4
2004-01-21 08:18:48 51°11.277 2°43.645 255.8 14.9 252 12.4
2004-01-21 08:18:52 51°11.272 2°43.62 255.1 14.8 252 12.4
2004-01-21 08:18:59 51°11.262 2°43.577 254.7 15 251 12.4
2004-01-21 08:19:03 51°11.257 2°43.552 254.7 15 251 12.4
2004-01-21 08:19:09 51°11.249 2°43.514 255 15 252 12.4
2004-01-21 08:19:15 51°11.241 2°43.477 255.3 14.9 252 12.4
2004-01-21 08:19:19 51°11.236 2°43.452 255.4 14.8 252 12.5
2004-01-21 08:19:25 51°11.228 2°43.415 255.2 14.8 251 12.4
2004-01-21 08:19:29 51°11.223 2°43.389 255.1 14.9 252 12.4
2004-01-21 08:19:35 51°11.215 2°43.352 255.1 14.9 252 12.4
2004-01-21 08:19:39 51°11.21 2°43.327 255.3 14.8 252 12.4
2004-01-21 08:19:45 51°11.202 2°43.29 255.4 14.8 252 12.4
2004-01-21 08:19:50 51°11.196 2°43.259 255.4 14.8 251 12.4
2004-01-21 08:19:55 51°11.189 2°43.227 255.3 14.9 252 12.4
2004-01-21 08:19:59 51°11.184 2°43.202 255.1 15 251 12.4
2004-01-21 08:20:05 51°11.176 2°43.165 255.2 14.9 252 12.4
2004-01-21 08:20:10 51°11.169 2°43.134 255.2 14.8 252 12.4
2004-01-21 08:20:15 51°11.163 2°43.103 254.9 14.9 251 12.4
2004-01-21 08:20:20 51°11.156 2°43.072 254.9 14.8 251 12.4
2004-01-21 08:20:25 51°11.15 2°43.041 254.7 14.9 251 12.4
2004-01-21 08:20:30 51°11.143 2°43.01 254.6 14.9 251 12.3
2004-01-21 08:20:35 51°11.137 2°42.978 254.8 14.9 253 12.4
2004-01-21 08:20:40 51°11.13 2°42.947 255.8 14.8 252 12.4
2004-01-21 08:20:45 51°11.124 2°42.916 255.4 14.8 252 12.4
2004-01-21 08:20:50 51°11.117 2°42.885 254.8 14.8 251 12.4
2004-01-21 08:20:55 51°11.11 2°42.854 254 14.8 250 12.5
2004-01-21 08:20:59 51°11.104 2°42.83 253.5 14.8 250 12.4
2004-01-21 08:21:05 51°11.096 2°42.792 252.7 14.9 251 12.4
2004-01-21 08:21:09 51°11.09 2°42.768 252.8 14.9 251 12.4
2004-01-21 08:21:15 51°11.082 2°42.731 253.2 14.8 250 12.4
2004-01-21 08:21:20 51°11.074 2°42.7 253.2 14.8 250 12.4
2004-01-21 08:21:23 51°11.07 2°42.682 253.3 14.8 250 12.4
2004-01-21 08:21:28 51°11.063 2°42.651 253.1 14.8 250 12.3
2004-01-21 08:21:35 51°11.053 2°42.608 252.7 14.9 250 12.3
2004-01-21 08:21:39 51°11.047 2°42.583 252.7 14.8 249 12.4
2004-01-21 08:21:45 51°11.039 2°42.546 252.7 14.8 250 12.4
2004-01-21 08:21:50 51°11.032 2°42.515 252.8 14.8 250 12.4
2004-01-21 08:21:55 51°11.027 2°42.484 254.5 14.8 253 12.3
2004-01-21 08:21:59 51°11.024 2°42.458 257.8 14.8 259 12.3
2004-01-21 08:22:03 51°11.022 2°42.432 262.7 14.6 263 12.3
2004-01-21 08:22:10 51°11.023 2°42.387 268.9 14.5 271 12.4
2004-01-21 08:22:15 51°11.026 2°42.358 276.1 13.4 278 12.2
2004-01-21 08:22:19 51°11.029 2°42.337 282.9 12.7 283 12.3
2004-01-21 08:22:25 51°11.036 2°42.307 289.2 12.2 287 12.3
2004-01-21 08:22:30 51°11.042 2°42.285 296.2 11.5 293 12.3
2004-01-21 08:22:35 51°11.05 2°42.266 303.1 10.2 302 12.3
2004-01-21 08:22:39 51°11.057 2°42.253 309.8 9.6 307 12.4
2004-01-21 08:22:43 51°11.064 2°42.242 317.2 8.7 316 12.5
2004-01-21 08:22:50 51°11.076 2°42.226 323.7 8.1 321 12.5
2004-01-21 08:22:55 51°11.085 2°42.219 333.2 7.3 331 12.4
2004-01-21 08:23:00 51°11.093 2°42.213 341.4 6.9 336 12.5
2004-01-21 08:23:04 51°11.1 2°42.21 349.1 6.5 343 12.3
2004-01-21 08:23:10 51°11.109 2°42.209 356.7 5.8 352 12.3
2004-01-21 08:23:15 51°11.117 2°42.209 4.4 5.3   12.3
2004-01-21 08:23:19 51°11.122 2°42.209 10.9 4.9 4 12.3
2004-01-21 08:23:25 51°11.13 2°42.211 16.4 4.5 8 12.3
2004-01-21 08:23:29 51°11.134 2°42.213 21.1 4.3 11 12.4
2004-01-21 08:23:35 51°11.14 2°42.216 25.4 3.8 19 12.3
2004-01-21 08:23:39 51°11.144 2°42.218 29.2 3.6 19 12.3
2004-01-21 08:23:44 51°11.148 2°42.222 32.8 3.4 24 12.3
2004-01-21 08:23:47 51°11.15 2°42.223 35.9 3.2 24 12.2
2004-01-21 08:23:55 51°11.156 2°42.228 38.4 2.7 26 12.1
2004-01-21 08:23:59 51°11.158 2°42.23 40 2.4 27 12.2
2004-01-21 08:24:03 51°11.16 2°42.231 39.9 1.9 20 12.2
2004-01-21 08:24:09 51°11.163 2°42.232 37.7 1.6 16 12.2
2004-01-21 08:24:15 51°11.165 2°42.233 35.2 1.2 7 12.1
2004-01-21 08:24:19 51°11.166 2°42.233 31.9 0.9 357 12.1
2004-01-21 08:24:23 51°11.167 2°42.233 29.6 0.7 343 12
2004-01-21 08:24:29 51°11.168 2°42.232 28.2 0.7 335 12.1
2004-01-21 08:24:35 51°11.169 2°42.231 26.7 0.7 334 12
2004-01-21 08:24:39 51°11.169 2°42.23 25.6 0.8 325 12
2004-01-21 08:24:45 51°11.17 2°42.229 24.4 0.8 330 12
2004-01-21 08:24:50 51°11.171 2°42.228 23.2 0.8 328 12.1
2004-01-21 08:24:55 51°11.172 2°42.228 22.5 0.8 335 12.1
2004-01-21 08:24:59 51°11.173 2°42.227 22.1 0.9 333 12.1
2004-01-21 08:25:05 51°11.174 2°42.226 22 0.7 339 12.1
2004-01-21 08:25:09 51°11.175 2°42.225 22.5 0.8 328 12.1
2004-01-21 08:25:15 51°11.177 2°42.225 23.2 0.9 338 12.1
2004-01-21 08:25:19 51°11.178 2°42.224 24.5 0.9 339 12.1
2004-01-21 08:25:24 51°11.179 2°42.224 25.7 0.8 342 12.1
2004-01-21 08:25:29 51°11.18 2°42.223 26.8 0.8 335 12.1
2004-01-21 08:25:35 51°11.181 2°42.222 28.3 0.8 338 12.1
2004-01-21 08:25:39 51°11.181 2°42.222 29.2 0.7 338 12.1
2004-01-21 08:25:43 51°11.182 2°42.221 30.5 0.6 332 12.1
2004-01-21 08:25:49 51°11.183 2°42.22 31.3 0.7 331 12
2004-01-21 08:25:55 51°11.184 2°42.219 32.6 0.6 319 12
2004-01-21 08:26:00 51°11.184 2°42.218 33.6 0.5 310 12
2004-01-21 08:26:03 51°11.184 2°42.218 35.1 0.5 310 12.1
2004-01-21 08:26:09 51°11.185 2°42.216 35.9 0.5 296 12
2004-01-21 08:26:15 51°11.185 2°42.215 37 0.5 284 12.1
2004-01-21 08:26:20 51°11.185 2°42.214 38 0.6 278 12
2004-01-21 08:26:23 51°11.185 2°42.213 39.1 0.6 265 12.1
2004-01-21 08:26:29 51°11.185 2°42.211 39.6 0.6 265 12.1
2004-01-21 08:26:35 51°11.184 2°42.209 40.4 0.9 248 12
2004-01-21 08:26:39 51°11.184 2°42.208 40.6 1 248 12.1
2004-01-21 08:26:43 51°11.183 2°42.206 40.9 1 241 12.1
2004-01-21 08:26:49 51°11.182 2°42.203 40.9 1.2 246 12.1
2004-01-21 08:26:55 51°11.181 2°42.201 40.8 1.3 237 12.1
2004-01-21 08:26:59 51°11.18 2°42.198 40.4 1.4 242 12.1
2004-01-21 08:27:05 51°11.179 2°42.195 39.6 1.4 235 12.1
2004-01-21 08:27:08 51°11.178 2°42.193 39.1 1.6 236 12.1
2004-01-21 08:27:15 51°11.176 2°42.189 38.1 1.6 233 12
2004-01-21 08:27:19 51°11.175 2°42.187 37.4 1.7 233 12
2004-01-21 08:27:25 51°11.173 2°42.184 36.2 1.8 232 12
2004-01-21 08:27:30 51°11.172 2°42.18 35 1.8 228 12
2004-01-21 08:27:35 51°11.17 2°42.177 34.1 1.9 228 12
2004-01-21 08:27:40 51°11.168 2°42.174 32.7 1.9 228 12.1
2004-01-21 08:27:45 51°11.166 2°42.171 31.5 2 227 12.1
2004-01-21 08:27:49 51°11.165 2°42.168 30.3 2.1 226 12.2
2004-01-21 08:27:55 51°11.162 2°42.165 29.3 2 219 12.1
2004-01-21 08:27:59 51°11.16 2°42.162 28.1 2.2 226 12.1
2004-01-21 08:28:05 51°11.158 2°42.158 26.8 2.1 220 12.1
2004-01-21 08:28:09 51°11.156 2°42.156 25.8 2.1 223 12.1
2004-01-21 08:28:15 51°11.154 2°42.152 24.7 1.9 222 12.2
2004-01-21 08:28:19 51°11.152 2°42.15 24.1 1.8 224 12.1
2004-01-21 08:28:25 51°11.151 2°42.147 22.8 1.5 227 12.1
2004-01-21 08:28:29 51°11.151 2°42.147 21.7 1 242 12.1
2004-01-21 08:28:35 51°11.152 2°42.145 19.9 0.9 307 12.1
2004-01-21 08:28:39 51°11.152 2°42.144 19.4 0.8 323 12.1
2004-01-21 08:28:43 51°11.153 2°42.143 19.4 0.9 320 12.1
2004-01-21 08:28:49 51°11.154 2°42.142 19.5 0.8 325 12.1
2004-01-21 08:28:55 51°11.155 2°42.14 19.8 0.9 320 12.1
2004-01-21 08:29:00 51°11.156 2°42.139 20 0.8 326 12.1
2004-01-21 08:29:04 51°11.157 2°42.138 20.4 0.8 316 12.2
2004-01-21 08:29:10 51°11.157 2°42.137 21 0.8 320 12.2
2004-01-21 08:29:15 51°11.158 2°42.136 21.6 0.8 320 12.2
2004-01-21 08:29:19 51°11.159 2°42.135 22.2 0.7 320 12.1
2004-01-21 08:29:25 51°11.16 2°42.134 23 0.8 321 12.1
2004-01-21 08:29:30 51°11.16 2°42.133 23.8 0.7 321 12.1
2004-01-21 08:29:35 51°11.161 2°42.132 24.4 0.6 325 12.1
2004-01-21 08:29:39 51°11.162 2°42.132 25.3 0.7 326 12.2
2004-01-21 08:29:43 51°11.162 2°42.131 25.7 0.6 325 12.2
2004-01-21 08:29:50 51°11.163 2°42.13 26.8 0.7 327 12.2
2004-01-21 08:29:55 51°11.164 2°42.129 27.6 0.6 326 12.2
2004-01-21 08:30:00 51°11.165 2°42.128 28.3 0.7 316 12.1
2004-01-21 08:30:05 51°11.165 2°42.127 29.5 0.5 320 12.1
2004-01-21 08:30:10 51°11.166 2°42.126 30.3 0.6 313 12.2
2004-01-21 08:30:15 51°11.166 2°42.126 31.4 0.4 312 12.2
2004-01-21 08:30:19 51°11.167 2°42.125 32 0.6 309 12.2
2004-01-21 08:30:25 51°11.167 2°42.124 32.7 0.6 309 12.2
2004-01-21 08:30:29 51°11.168 2°42.123 33.7 0.5 315 12.1
2004-01-21 08:30:35 51°11.169 2°42.122 34.8 0.5 323 12.2
2004-01-21 08:30:39 51°11.169 2°42.122 35.2 0.5 321 12.2
2004-01-21 08:30:43 51°11.17 2°42.121 36.1 0.4 328 12.2
2004-01-21 08:30:49 51°11.17 2°42.12 37 0.5 321 12.1
2004-01-21 08:30:55 51°11.171 2°42.119 37.8 0.4 327 12.1
2004-01-21 08:31:00 51°11.172 2°42.118 38.6 0.5 318 12.1
2004-01-21 08:31:04 51°11.173 2°42.118 39.5 0.4 320 12.1
2004-01-21 08:31:10 51°11.174 2°42.118 40.4 0.5 327 12.1
2004-01-21 08:31:15 51°11.175 2°42.117 41 0.5 337 12.1
2004-01-21 08:31:19 51°11.175 2°42.117 41.5 0.5 335 12.2
2004-01-21 08:31:25 51°11.175 2°42.117 42.1 0.5 335 12.1
2004-01-21 08:31:30 51°11.175 2°42.117 42.8 0.4 347 12.1
2004-01-21 08:31:35 51°11.175 2°42.117 43.7 0.3 356 12.1
2004-01-21 08:31:39 51°11.175 2°42.117 44.2 0.3 356 12.1
2004-01-21 08:31:43 51°11.176 2°42.117 44.7 0.3 4 12.1
2004-01-21 08:31:49 51°11.176 2°42.117 45.5 0.5 338 12.1
2004-01-21 08:31:55 51°11.177 2°42.117 46.2 0.4 356 12.1
2004-01-21 08:31:59 51°11.177 2°42.117 46.9 0.4 353 12.1
2004-01-21 08:32:03 51°11.178 2°42.117 47.4 0.4 2 12.1
2004-01-21 08:32:10 51°11.179 2°42.117 47.9 0.5 349 12.1
2004-01-21 08:32:15 51°11.179 2°42.117 48.7 0.4 2 12.1
2004-01-21 08:32:20 51°11.18 2°42.117 49.4 0.4 2 12.1
2004-01-21 08:32:23 51°11.18 2°42.117 50.1 0.4 9 12.1
2004-01-21 08:32:30 51°11.181 2°42.117 50.5 0.4 14 12.1
2004-01-21 08:32:35 51°11.182 2°42.117 51.3 0.4 13 12.1
2004-01-21 08:32:39 51°11.182 2°42.117 51.7 0.4 3 12.1
2004-01-21 08:32:45 51°11.183 2°42.117 52.2 0.4 15 12.2
2004-01-21 08:32:49 51°11.184 2°42.118 52.7 0.4 8 12.1
2004-01-21 08:32:55 51°11.184 2°42.118 53.1 0.4 19 12.1
2004-01-21 08:33:00 51°11.185 2°42.118 53.5 0.4 29 12.1
2004-01-21 08:33:05 51°11.185 2°42.119 54 0.4 37 12.1
2004-01-21 08:33:08 51°11.186 2°42.119 54.2 0.4 25 12.1
2004-01-21 08:33:15 51°11.187 2°42.119 54.7 0.4 30 12.1
2004-01-21 08:33:19 51°11.187 2°42.12 55.1 0.5 17 12.1
2004-01-21 08:33:25 51°11.188 2°42.12 55.4 0.4 34 12.1
2004-01-21 08:33:29 51°11.189 2°42.12 55.9 0.5 26 12.1
2004-01-21 08:33:33 51°11.189 2°42.121 56.4 0.4 36 12.1
2004-01-21 08:33:40 51°11.19 2°42.122 56.9 0.5 22 12.1
2004-01-21 08:33:44 51°11.19 2°42.122 57.5 0.4 40 12.1
2004-01-21 08:33:47 51°11.191 2°42.122 58.3 0.5 28 12.1
2004-01-21 08:33:55 51°11.192 2°42.124 58.8 0.5 36 12.1
2004-01-21 08:33:59 51°11.192 2°42.124 59.5 0.5 40 12.1
2004-01-21 08:34:03 51°11.193 2°42.125 59.9 0.5 37 12.1
2004-01-21 08:34:10 51°11.193 2°42.126 60.5 0.5 37 12.1
2004-01-21 08:34:15 51°11.194 2°42.126 61.1 0.5 35 12.1
2004-01-21 08:34:19 51°11.194 2°42.127 61.4 0.5 38 12.1
2004-01-21 08:34:25 51°11.195 2°42.128 61.9 0.5 41 12.1
2004-01-21 08:34:30 51°11.195 2°42.129 62.2 0.5 31 12.2
2004-01-21 08:34:35 51°11.196 2°42.129 62.4 0.5 26 12.2
2004-01-21 08:34:39 51°11.196 2°42.13 62.8 0.5 50 12.2
2004-01-21 08:34:45 51°11.197 2°42.131 63.1 0.6 37 12.1
2004-01-21 08:34:50 51°11.198 2°42.131 63.4 0.5 47 12.1
2004-01-21 08:34:55 51°11.198 2°42.132 63.8 0.5 40 12.1
2004-01-21 08:34:59 51°11.199 2°42.133 64 0.5 44 12.1
2004-01-21 08:35:03 51°11.199 2°42.133 64.3 0.5 38 12.1
2004-01-21 08:35:10 51°11.2 2°42.134 64.5 0.6 43 12.1
2004-01-21 08:35:13 51°11.201 2°42.135 64.8 0.5 48 12.1
2004-01-21 08:35:19 51°11.201 2°42.136 65.3 0.5 39 12.1
2004-01-21 08:35:24 51°11.202 2°42.137 65.6 0.5 47 12.1
2004-01-21 08:35:30 51°11.202 2°42.138 65.9 0.6 39 12.1
2004-01-21 08:35:35 51°11.203 2°42.138 66.2 0.6 44 12.1
2004-01-21 08:35:40 51°11.204 2°42.139 66.7 0.6 47 12.2
2004-01-21 08:35:45 51°11.204 2°42.14 66.8 0.6 45 12.1
2004-01-21 08:35:49 51°11.204 2°42.141 67.4 0.5 53 12.1
2004-01-21 08:35:55 51°11.205 2°42.142 67.8 0.5 53 12.1
2004-01-21 08:36:00 51°11.205 2°42.143 68.2 0.5 52 12.1
2004-01-21 08:36:05 51°11.206 2°42.144 68.7 0.5 63 12.1
2004-01-21 08:36:08 51°11.206 2°42.145 69.5 0.5 59 12.2
2004-01-21 08:36:15 51°11.207 2°42.146 70.3 0.6 65 12.2
2004-01-21 08:36:19 51°11.207 2°42.147 71.4 0.6 52 12.2
2004-01-21 08:36:25 51°11.207 2°42.149 72.5 0.6 67 12.2
2004-01-21 08:36:29 51°11.208 2°42.15 73.5 0.6 56 12.2
2004-01-21 08:36:35 51°11.208 2°42.151 74.7 0.6 70 12.2
2004-01-21 08:36:39 51°11.208 2°42.152 75.8 0.6 68 12.2
2004-01-21 08:36:44 51°11.209 2°42.153 77 0.6 73 12.1
2004-01-21 08:36:50 51°11.209 2°42.155 78.4 0.6 72 12.1
2004-01-21 08:36:55 51°11.209 2°42.156 79.6 0.8 85 12.1
2004-01-21 08:36:59 51°11.209 2°42.158 80.8 1 75 12.2
2004-01-21 08:37:04 51°11.209 2°42.161 82.7 1.1 88 12.1
2004-01-21 08:37:09 51°11.209 2°42.164 85.6 1.4 84 12.2
2004-01-21 08:37:15 51°11.209 2°42.168 88.7 1.6 97 12.2
2004-01-21 08:37:19 51°11.209 2°42.171 92.4 1.9 99 12.2
2004-01-21 08:37:25 51°11.207 2°42.178 96.5 2.6 108 12.2
2004-01-21 08:37:27 51°11.207 2°42.18 100.7 2.8 110 12.2
2004-01-21 08:37:35 51°11.203 2°42.191 108.4 3.5 121 12.1
2004-01-21 08:37:40 51°11.2 2°42.197 116 3.7 127 12.2
2004-01-21 08:37:45 51°11.196 2°42.203 123.4 4 132 12.2
2004-01-21 08:37:47 51°11.194 2°42.206 131.3 4.4 142 12.2
2004-01-21 08:37:55 51°11.185 2°42.214 138.8 4.5 144 12.2
2004-01-21 08:37:59 51°11.18 2°42.217 145.1 5 158 12.2
2004-01-21 08:38:05 51°11.171 2°42.221 154.8 5.2 167 12.2
2004-01-21 08:38:09 51°11.165 2°42.221 162.9 5.2 171 12.3
2004-01-21 08:38:15 51°11.156 2°42.221 171.3 5.5 183 12.3
2004-01-21 08:38:19 51°11.15 2°42.219 177.8 5.6 190 12.3
2004-01-21 08:38:25 51°11.141 2°42.214 188.3 5.7 196 12.4
2004-01-21 08:38:30 51°11.134 2°42.208 196.6 5.9 206 12.4
2004-01-21 08:38:35 51°11.127 2°42.201 205.4 6.1 213 12.4
2004-01-21 08:38:39 51°11.122 2°42.193 213.9 6 222 12.4
2004-01-21 08:38:45 51°11.115 2°42.181 222.5 6.2 229 12.5
2004-01-21 08:38:50 51°11.11 2°42.169 230.8 6.3 237 12.5
2004-01-21 08:38:55 51°11.106 2°42.156 240 6.4 244 12.4
2004-01-21 08:39:00 51°11.103 2°42.142 248.3 6.6 250 12.5
2004-01-21 08:39:05 51°11.101 2°42.128 254.7 6.8 252 12.4
2004-01-21 08:39:07 51°11.099 2°42.122 257 7.3 253 12.4
2004-01-21 08:39:15 51°11.094 2°42.095 258.4 7.6 255 12.4
2004-01-21 08:39:20 51°11.091 2°42.075 258.9 9 256 12.4
2004-01-21 08:39:23 51°11.089 2°42.063 259.7 9.7 256 12.4
2004-01-21 08:39:29 51°11.085 2°42.035 260.1 9.7 256 12.3
2004-01-21 08:39:35 51°11.081 2°42.005 260.7 11.7 257 12.3
2004-01-21 08:39:39 51°11.077 2°41.983 261.1 12.2 257 12.3
2004-01-21 08:39:43 51°11.074 2°41.962 260.9 12.9 256 12.3
2004-01-21 08:39:49 51°11.069 2°41.928 260.5 13.2 256 12.2
2004-01-21 08:39:55 51°11.063 2°41.893 260 13.6 256 12.2
2004-01-21 08:39:59 51°11.06 2°41.869 259.9 13.7 257 12.2
2004-01-21 08:40:05 51°11.054 2°41.834 260.3 13.8 256 12.3
2004-01-21 08:40:08 51°11.051 2°41.816 260.3 14 256 12.2
2004-01-21 08:40:15 51°11.045 2°41.773 260.5 14.1 256 12.2
2004-01-21 08:40:19 51°11.041 2°41.749 260.5 14.2 257 12.2
2004-01-21 08:40:25 51°11.036 2°41.712 260.5 14.3 257 12.2
2004-01-21 08:40:30 51°11.031 2°41.681 260.4 14.3 257 12.2
2004-01-21 08:40:35 51°11.026 2°41.651 260.6 14.3 256 12.2
2004-01-21 08:40:40 51°11.022 2°41.62 260.5 14.4 256 12.2
2004-01-21 08:40:45 51°11.017 2°41.589 260.6 14.3 257 12.2
2004-01-21 08:40:49 51°11.013 2°41.565 260.6 14.4 257 12.2
2004-01-21 08:40:55 51°11.008 2°41.527 260.2 14.4 257 12.2
2004-01-21 08:41:00 51°11.003 2°41.496 260.5 14.4 257 12.2
2004-01-21 08:41:05 51°10.998 2°41.465 260.6 14.5 257 12.2
2004-01-21 08:41:10 51°10.994 2°41.434 260.7 14.4 257 12.2
2004-01-21 08:41:15 51°10.989 2°41.403 261.1 14.4 257 12.3
2004-01-21 08:41:19 51°10.985 2°41.378 260.7 14.5 257 12.3
2004-01-21 08:41:25 51°10.98 2°41.341 261.1 14.5 257 12.3
2004-01-21 08:41:30 51°10.975 2°41.31 261 14.5 256 12.3
2004-01-21 08:41:35 51°10.971 2°41.279 260.9 14.4 257 12.4
2004-01-21 08:41:40 51°10.966 2°41.248 260.9 14.4 257 12.4
2004-01-21 08:41:45 51°10.962 2°41.217 260.9 14.4 257 12.4
2004-01-21 08:41:50 51°10.958 2°41.186 260.9 14.5 258 12.4
2004-01-21 08:41:55 51°10.952 2°41.154 261.3 14.5 256 12.4
2004-01-21 08:41:59 51°10.949 2°41.129 261 14.6 257 12.6
2004-01-21 08:42:05 51°10.943 2°41.092 260.7 14.5 256 12.6
2004-01-21 08:42:10 51°10.938 2°41.061 260.5 14.5 257 12.6
2004-01-21 08:42:15 51°10.934 2°41.03 260.2 14.5 257 12.6
2004-01-21 08:42:20 51°10.929 2°40.999 260.6 14.5 257 12.7
2004-01-21 08:42:23 51°10.927 2°40.98 261.1 14.5 257 12.8
2004-01-21 08:42:29 51°10.921 2°40.943 261.1 14.5 257 12.8
2004-01-21 08:42:35 51°10.916 2°40.906 261.2 14.5 256 12.8
2004-01-21 08:42:39 51°10.912 2°40.881 260.8 14.5 257 12.8
2004-01-21 08:42:43 51°10.908 2°40.856 260.7 14.5 257 12.9
2004-01-21 08:42:49 51°10.902 2°40.818 260.9 14.5 256 12.9
2004-01-21 08:42:55 51°10.896 2°40.781 260.5 14.5 255 13
2004-01-21 08:42:59 51°10.892 2°40.756 259.5 14.5 255 13
2004-01-21 08:43:03 51°10.888 2°40.732 259.1 14.5 255 13
2004-01-21 08:43:08 51°10.882 2°40.701 258.9 14.6 254 13.1
2004-01-21 08:43:15 51°10.875 2°40.657 258.7 14.6 254 13.2
2004-01-21 08:43:19 51°10.871 2°40.632 258.4 14.5 255 13.2
2004-01-21 08:43:25 51°10.864 2°40.596 258.8 14.5 255 13.2
2004-01-21 08:43:29 51°10.86 2°40.571 258.8 14.5 254 13.3
2004-01-21 08:43:35 51°10.854 2°40.533 258.9 14.5 255 13.3
2004-01-21 08:43:39 51°10.85 2°40.509 259.1 14.5 255 13.4
2004-01-21 08:43:45 51°10.844 2°40.471 259.1 14.6 255 13.5
2004-01-21 08:43:50 51°10.838 2°40.44 259 14.6 255 13.5
2004-01-21 08:43:55 51°10.833 2°40.409 259 14.6 255 13.6
2004-01-21 08:43:59 51°10.829 2°40.385 259.1 14.5 254 13.6
2004-01-21 08:44:05 51°10.822 2°40.347 259 14.5 255 13.6
2004-01-21 08:44:08 51°10.819 2°40.329 259 14.5 255 13.7
2004-01-21 08:44:13 51°10.814 2°40.298 259 14.6 254 13.7
2004-01-21 08:44:19 51°10.808 2°40.26 258.9 14.6 256 13.8
2004-01-21 08:44:25 51°10.802 2°40.223 259.2 14.5 255 13.9
2004-01-21 08:44:30 51°10.796 2°40.192 259.2 14.5 255 13.9
2004-01-21 08:44:35 51°10.791 2°40.161 259.1 14.6 255 14
2004-01-21 08:44:39 51°10.787 2°40.137 259 14.5 255 14.1
2004-01-21 08:44:45 51°10.78 2°40.099 258.6 14.6 254 14.1
2004-01-21 08:44:50 51°10.775 2°40.068 258.7 14.6 255 14.1
2004-01-21 08:44:55 51°10.77 2°40.037 258.8 14.6 256 14.1
2004-01-21 08:45:00 51°10.765 2°40.006 259.1 14.6 255 14.3
2004-01-21 08:45:05 51°10.76 2°39.975 259.6 14.6 255 14.3
2004-01-21 08:45:07 51°10.758 2°39.963 259.3 14.5 255 14.4
2004-01-21 08:45:15 51°10.749 2°39.913 258.9 14.6 255 14.4
2004-01-21 08:45:20 51°10.744 2°39.882 259 14.6 255 14.5
2004-01-21 08:45:23 51°10.741 2°39.863 259.1 14.5 256 14.6
2004-01-21 08:45:29 51°10.735 2°39.826 259.5 14.5 256 14.6
2004-01-21 08:45:35 51°10.729 2°39.789 259.1 14.6 256 14.5
2004-01-21 08:45:39 51°10.725 2°39.764 259 14.5 255 14.7
2004-01-21 08:45:43 51°10.72 2°39.739 258.6 14.6 255 14.6
2004-01-21 08:45:49 51°10.714 2°39.702 258.5 14.6 255 14.7
2004-01-21 08:45:55 51°10.708 2°39.665 258.9 14.6 256 14.7
2004-01-21 08:46:00 51°10.703 2°39.633 259.1 14.6 256 14.7
2004-01-21 08:46:04 51°10.698 2°39.608 259.6 14.6 255 14.8
2004-01-21 08:46:09 51°10.693 2°39.577 259.1 14.7 255 14.9
2004-01-21 08:46:15 51°10.687 2°39.54 259.1 14.6 255 15
2004-01-21 08:46:19 51°10.683 2°39.515 259.1 14.6 255 15
2004-01-21 08:46:25 51°10.676 2°39.477 259.2 14.6 255 15.1
2004-01-21 08:46:29 51°10.672 2°39.453 259.3 14.6 255 15.1
2004-01-21 08:46:35 51°10.666 2°39.415 259.1 14.7 254 15.2
2004-01-21 08:46:39 51°10.662 2°39.39 259.1 14.6 255 15.3
2004-01-21 08:46:43 51°10.657 2°39.365 259.1 14.7 254 15.4
2004-01-21 08:46:49 51°10.651 2°39.328 258.8 14.7 255 15.5
2004-01-21 08:46:55 51°10.645 2°39.29 259.2 14.6 254 15.6
2004-01-21 08:46:59 51°10.641 2°39.265 259.3 14.6 256 15.8
2004-01-21 08:47:03 51°10.637 2°39.24 259.4 14.7 255 15.9
2004-01-21 08:47:08 51°10.632 2°39.209 259.6 14.6 255 15.9
2004-01-21 08:47:15 51°10.624 2°39.165 259.1 14.6 255 15.9
2004-01-21 08:47:19 51°10.62 2°39.14 258.8 14.6 255 16
2004-01-21 08:47:25 51°10.613 2°39.103 258.9 14.6 254 16.2
2004-01-21 08:47:30 51°10.608 2°39.072 258.8 14.6 255 16.3
2004-01-21 08:47:35 51°10.603 2°39.041 258.9 14.6 255 16.3
2004-01-21 08:47:39 51°10.599 2°39.016 259.1 14.6 255 16.4
2004-01-21 08:47:45 51°10.593 2°38.979 259.2 14.6 256 16.5
2004-01-21 08:47:49 51°10.589 2°38.954 259.4 14.6 255 16.6
2004-01-21 08:47:55 51°10.582 2°38.917 259.3 14.5 255 16.7
2004-01-21 08:47:59 51°10.578 2°38.892 259.2 14.6 255 16.7
2004-01-21 08:48:03 51°10.574 2°38.867 258.9 14.5 255 16.9
2004-01-21 08:48:08 51°10.568 2°38.836 258.9 14.5 254 16.9
2004-01-21 08:48:15 51°10.561 2°38.793 258.8 14.5 255 16.9
2004-01-21 08:48:19 51°10.557 2°38.768 259.1 14.5 255 16.9
2004-01-21 08:48:25 51°10.551 2°38.731 259.6 14.5 256 17.1
2004-01-21 08:48:30 51°10.546 2°38.7 259.7 14.5 255 17.2
2004-01-21 08:48:35 51°10.541 2°38.669 259.4 14.5 255 17.4
2004-01-21 08:48:40 51°10.536 2°38.638 259.3 14.4 256 17.4
2004-01-21 08:48:45 51°10.53 2°38.607 259.1 14.5 255 17.4
2004-01-21 08:48:48 51°10.528 2°38.589 258.9 14.4 256 17.5
2004-01-21 08:48:55 51°10.52 2°38.546 259.1 14.4 255 17.5
2004-01-21 08:48:59 51°10.516 2°38.521 259.1 14.5 255 17.6
2004-01-21 08:49:05 51°10.511 2°38.485 259.6 14.3 256 17.6
2004-01-21 08:49:09 51°10.506 2°38.46 259.8 14.3 255 17.7
2004-01-21 08:49:15 51°10.5 2°38.423 259.1 14.5 254 17.8
2004-01-21 08:49:19 51°10.495 2°38.399 258.4 14.4 253 17.7
2004-01-21 08:49:25 51°10.488 2°38.363 257.6 14.4 253 17.9
2004-01-21 08:49:30 51°10.482 2°38.332 256.7 14.4 252 18
2004-01-21 08:49:35 51°10.476 2°38.302 256.7 14.4 253 18
2004-01-21 08:49:39 51°10.472 2°38.277 257.1 14.4 253 18
2004-01-21 08:49:43 51°10.467 2°38.253 257.1 14.4 253 18.1
2004-01-21 08:49:49 51°10.46 2°38.217 257.1 14.4 253 18.1
2004-01-21 08:49:55 51°10.454 2°38.18 257.2 14.4 253 18.1
2004-01-21 08:50:00 51°10.448 2°38.15 257.3 14.4 254 18.1
2004-01-21 08:50:04 51°10.444 2°38.125 258 14.3 253 18.1
2004-01-21 08:50:09 51°10.438 2°38.095 257.6 14.3 252 18.2
2004-01-21 08:50:15 51°10.431 2°38.059 257.4 14.3 251 18.1
2004-01-21 08:50:19 51°10.426 2°38.035 256.3 14.4 253 18.2
2004-01-21 08:50:25 51°10.419 2°37.999 256.9 14.3 254 18.2
2004-01-21 08:50:29 51°10.415 2°37.975 256.7 14.3 252 18.2
2004-01-21 08:50:35 51°10.408 2°37.939 257.1 14.2 253 18.3
2004-01-21 08:50:39 51°10.403 2°37.914 257.2 14.3 252 18.2
2004-01-21 08:50:43 51°10.399 2°37.89 256.9 14.2 253 18.3
2004-01-21 08:50:49 51°10.391 2°37.854 257.3 14.2 252 18.3
2004-01-21 08:50:55 51°10.385 2°37.818 256.6 14.3 254 18.4
2004-01-21 08:51:00 51°10.379 2°37.788 257.3 14.2 253 18.3
2004-01-21 08:51:04 51°10.374 2°37.764 257.3 14.4 253 18.3
2004-01-21 08:51:09 51°10.368 2°37.734 257.1 14.4 253 18.3
2004-01-21 08:51:15 51°10.361 2°37.698 256.9 14.2 252 18.3
2004-01-21 08:51:19 51°10.356 2°37.674 256.6 14.4 253 18.3
2004-01-21 08:51:25 51°10.35 2°37.638 256.8 14.3 254 18.2
2004-01-21 08:51:29 51°10.345 2°37.614 257.6 14.1 253 18.2
2004-01-21 08:51:35 51°10.338 2°37.578 256.4 14.3 254 18.3
2004-01-21 08:51:40 51°10.332 2°37.548 257 14.2 253 18.3
2004-01-21 08:51:45 51°10.326 2°37.518 257.3 14.2 253 18.3
2004-01-21 08:51:47 51°10.324 2°37.506 257.2 14.2 253 18.3
2004-01-21 08:51:55 51°10.316 2°37.457 257.7 14.2 254 18.2
2004-01-21 08:51:59 51°10.311 2°37.433 257.3 14.1 253 18.1
2004-01-21 08:52:05 51°10.304 2°37.397 257.3 14.2 253 18
2004-01-21 08:52:10 51°10.298 2°37.368 256.9 14.2 253 18.1
2004-01-21 08:52:15 51°10.293 2°37.338 256.9 14.2 254 18.3
2004-01-21 08:52:20 51°10.287 2°37.308 257.4 14.1 253 18.1
2004-01-21 08:52:23 51°10.284 2°37.29 257.6 14.1 254 18.1
2004-01-21 08:52:30 51°10.276 2°37.248 257.8 14.1 254 18.2
2004-01-21 08:52:35 51°10.27 2°37.218 257.6 14.1 253 18.1
2004-01-21 08:52:39 51°10.265 2°37.194 257.4 14.2 253 18.2
2004-01-21 08:52:45 51°10.258 2°37.158 257.3 14.2 253 18.1
2004-01-21 08:52:48 51°10.255 2°37.14 257.5 14.2 253 18.2
2004-01-21 08:52:55 51°10.247 2°37.098 257.3 14.2 253 18.1
2004-01-21 08:52:59 51°10.243 2°37.074 257.6 14.2 253 18.1
2004-01-21 08:53:05 51°10.236 2°37.039 257.2 14.2 253 18.2
2004-01-21 08:53:09 51°10.232 2°37.015 257 14.1 254 18.2
2004-01-21 08:53:15 51°10.225 2°36.979 257.5 14.2 253 18.2
2004-01-21 08:53:19 51°10.221 2°36.955 257.5 14.2 254 18.2
2004-01-21 08:53:25 51°10.214 2°36.919 257.5 14.1 253 18.2
2004-01-21 08:53:29 51°10.209 2°36.895 257.5 14.1 254 18.3
2004-01-21 08:53:35 51°10.203 2°36.86 257.3 14.1 253 18.2
2004-01-21 08:53:39 51°10.198 2°36.836 257.1 14.1 253 18.2
2004-01-21 08:53:45 51°10.191 2°36.8 256.9 14.2 252 18.2
2004-01-21 08:53:50 51°10.185 2°36.77 256.8 14.2 253 18.3
2004-01-21 08:53:55 51°10.18 2°36.741 257.1 14 253 18.2
2004-01-21 08:54:00 51°10.174 2°36.711 257.2 14.1 253 18.2
2004-01-21 08:54:03 51°10.17 2°36.693 257.1 14.2 253 18.2
2004-01-21 08:54:10 51°10.163 2°36.651 257.4 14.1 254 18.3
2004-01-21 08:54:15 51°10.157 2°36.621 257 14.2 253 18.3
2004-01-21 08:54:19 51°10.152 2°36.598 257.1 14.2 253 18.2
2004-01-21 08:54:23 51°10.148 2°36.574 256.9 14.2 254 18.1
2004-01-21 08:54:27 51°10.143 2°36.55 257.4 14.2 253 18.4
2004-01-21 08:54:35 51°10.135 2°36.501 257.5 14.1 255 18.1
2004-01-21 08:54:39 51°10.13 2°36.478 257.8 14.1 252 18
2004-01-21 08:54:45 51°10.123 2°36.442 256.9 14.2 254 18
2004-01-21 08:54:47 51°10.121 2°36.43 257.2 14.2 253 18.2
2004-01-21 08:54:55 51°10.112 2°36.382 257.1 14.2 255 18.1
2004-01-21 08:55:00 51°10.106 2°36.352 257.6 14.2 252 18.2
2004-01-21 08:55:04 51°10.102 2°36.328 257.3 14.2 255 18
2004-01-21 08:55:09 51°10.096 2°36.298 257.5 14.2 254 18
2004-01-21 08:55:15 51°10.092 2°36.261 258.6 14.1 260 17.8
2004-01-21 08:55:19 51°10.09 2°36.236 262.5 14.1 261 17.8
2004-01-21 08:55:25 51°10.088 2°36.199 265.7 14.1 264 18
2004-01-21 08:55:29 51°10.087 2°36.174 268.5 14.1 265 17.8
2004-01-21 08:55:35 51°10.086 2°36.137 270.3 14.2 269 17.7
2004-01-21 08:55:40 51°10.086 2°36.106 272.1 14.1 269 17.6
2004-01-21 08:55:45 51°10.088 2°36.075 275.3 14 273 17.4
2004-01-21 08:55:50 51°10.09 2°36.044 279 14 277 17.1
2004-01-21 08:55:55 51°10.094 2°36.014 283 13.9 283 17
2004-01-21 08:56:00 51°10.099 2°35.985 287.5 13.9 284 16.6
2004-01-21 08:56:05 51°10.105 2°35.955 290.6 13.9 287 16.1
2004-01-21 08:56:09 51°10.11 2°35.933 293.1 13.9 287 15.9
2004-01-21 08:56:15 51°10.119 2°35.899 295.2 13.8 294 15.3
2004-01-21 08:56:19 51°10.126 2°35.877 299.1 13.7 297 14.7
2004-01-21 08:56:23 51°10.133 2°35.856 302.9 13.7 299 14.1
2004-01-21 08:56:29 51°10.147 2°35.827 307.3 13.6 306 13.1
2004-01-21 08:56:35 51°10.16 2°35.799 311.7 13.5 308 12.4
2004-01-21 08:56:40 51°10.173 2°35.776 315 13.5 311 11.9
2004-01-21 08:56:45 51°10.185 2°35.754 316.9 13.4 310 11.4
2004-01-21 08:56:49 51°10.195 2°35.737 318.1 13.4 312 11.3
2004-01-21 08:56:55 51°10.211 2°35.711 319.8 13.4 314 11.1
2004-01-21 08:56:59 51°10.221 2°35.694 320.1 13.4 315 11.3
2004-01-21 08:57:03 51°10.232 2°35.678 321.4 13.4 320 11.3
2004-01-21 08:57:09 51°10.25 2°35.657 325.6 13.4 322 11.4
2004-01-21 08:57:15 51°10.269 2°35.638 329.7 13.3 329 11.5
2004-01-21 08:57:20 51°10.286 2°35.625 334.3 13.3 333 11.3
2004-01-21 08:57:23 51°10.296 2°35.619 339.1 13.2 339 11.5
2004-01-21 08:57:27 51°10.31 2°35.611 344.3 13.2 341 11.4
2004-01-21 08:57:35 51°10.338 2°35.6 348.9 13.1 347 11.4
2004-01-21 08:57:40 51°10.356 2°35.594 352.4 13.2 349 11.5
2004-01-21 08:57:43 51°10.368 2°35.591 354.8 13.3 350 11.6
2004-01-21 08:57:48 51°10.386 2°35.587 356.5 13.3 351 11.6
2004-01-21 08:57:55 51°10.411 2°35.583 358.1 13.3 354 11.3
2004-01-21 08:57:59 51°10.426 2°35.583 0.6 13.2   11.3
2004-01-21 08:58:05 51°10.447 2°35.585 5.3 13.1 3 11.1
2004-01-21 08:58:10 51°10.466 2°35.589 9.4 13.1 7 11
2004-01-21 08:58:15 51°10.484 2°35.594 12.4 13.1 9 11
2004-01-21 08:58:19 51°10.498 2°35.599 14.6 13.1 9 10.9
2004-01-21 08:58:23 51°10.512 2°35.604 16.4 13.2 13 10.8
2004-01-21 08:58:30 51°10.537 2°35.614 17.5 13.2 15 10.8
2004-01-21 08:58:35 51°10.554 2°35.624 20.5 13.2 20 10.6
2004-01-21 08:58:40 51°10.571 2°35.636 24.1 13.2 23 10.9
2004-01-21 08:58:45 51°10.587 2°35.649 27.4 13.2 25 10.7
2004-01-21 08:58:50 51°10.603 2°35.662 29.9 13.2 27 10.6
2004-01-21 08:58:55 51°10.619 2°35.676 32 13.2 29 10.8
2004-01-21 08:59:00 51°10.635 2°35.69 33.3 13.2 29 10.7
2004-01-21 08:59:05 51°10.652 2°35.705 34.1 13.3 30 11
2004-01-21 08:59:10 51°10.667 2°35.72 34.7 13.3 30 11.1
2004-01-21 08:59:15 51°10.683 2°35.735 35 13.3 31 10.9
2004-01-21 08:59:19 51°10.696 2°35.747 35.3 13.4 31 11
2004-01-21 08:59:23 51°10.709 2°35.759 35.5 13.4 30 10.9
2004-01-21 08:59:30 51°10.731 2°35.78 35.4 13.3 31 11
2004-01-21 08:59:35 51°10.747 2°35.795 35.3 13.4 31 11
2004-01-21 08:59:39 51°10.76 2°35.807 35 13.4 30 11
2004-01-21 08:59:45 51°10.779 2°35.825 35 13.4 30 11.1
2004-01-21 08:59:50 51°10.795 2°35.84 35.1 13.4 31 11.2
2004-01-21 08:59:55 51°10.811 2°35.856 35.5 13.4 31 11.3
2004-01-21 08:59:59 51°10.823 2°35.868 35.5 13.4 31 10.9
2004-01-21 09:00:05 51°10.842 2°35.886 35.3 13.4 31 11.1
2004-01-21 09:00:08 51°10.852 2°35.895 35.3 13.4 31 11.2
2004-01-21 09:00:15 51°10.874 2°35.916 35.4 13.3 31 11.1
2004-01-21 09:00:19 51°10.887 2°35.928 35.7 13.4 31 11.2
2004-01-21 09:00:25 51°10.906 2°35.946 35.5 13.3 31 11.3
2004-01-21 09:00:30 51°10.922 2°35.961 35.2 13.4 30 11.2
2004-01-21 09:00:43 51°10.963 2°36.001 35.7 13.3 31 11.2
2004-01-21 09:00:49 51°10.982 2°36.019 35.6 13.4 31 11.3
2004-01-21 09:00:55 51°11.001 2°36.038 35.7 13.3 32 11.2
2004-01-21 09:00:59 51°11.014 2°36.05 36 13.4 31 11.2
2004-01-21 09:01:03 51°11.026 2°36.063 35.8 13.4 31 11.5
2004-01-21 09:01:10 51°11.049 2°36.084 35.7 13.4 31 11.3
2004-01-21 09:01:15 51°11.064 2°36.099 35.5 13.4 31 11.4
2004-01-21 09:01:19 51°11.077 2°36.111 35.6 13.3 31 11.4
2004-01-21 09:01:23 51°11.089 2°36.124 35.8 13.3 32 11.3
2004-01-21 09:01:30 51°11.111 2°36.145 36 13.4 32 11.3
2004-01-21 09:01:35 51°11.127 2°36.161 36.1 13.3 32 11.5
2004-01-21 09:01:39 51°11.14 2°36.173 36.2 13.4 32 11.4
2004-01-21 09:01:45 51°11.159 2°36.192 36.1 13.3 32 11.4
2004-01-21 09:01:50 51°11.175 2°36.207 35.8 13.3 32 11.5
2004-01-21 09:01:55 51°11.19 2°36.222 35.8 13.4 32 11.6
2004-01-21 09:02:00 51°11.206 2°36.238 35.8 13.4 32 11.5
2004-01-21 09:02:04 51°11.219 2°36.25 36.2 13.4 32 11.5
2004-01-21 09:02:09 51°11.234 2°36.266 36.1 13.3 32 11.7
2004-01-21 09:02:13 51°11.247 2°36.278 35.9 13.4 31 11.5
2004-01-21 09:02:29 51°11.298 2°36.327 36.2 13.4 31 11.6
2004-01-21 09:02:31 51°11.304 2°36.334 35.8 13.2 32 11.6
2004-01-21 09:02:39 51°11.329 2°36.358 36.3 13.3 31 11.6
2004-01-21 09:02:43 51°11.342 2°36.371 35.9 13.3 32 11.5
2004-01-21 09:02:49 51°11.361 2°36.39 36 13.4 32 11.6
2004-01-21 09:02:54 51°11.376 2°36.405 36.2 13.4 32 11.6
2004-01-21 09:02:59 51°11.392 2°36.421 35.9 13.4 32 11.3
2004-01-21 09:03:04 51°11.408 2°36.436 36 13.3 32 11.5
2004-01-21 09:03:09 51°11.424 2°36.452 35.9 13.3 32 11.5
2004-01-21 09:03:12 51°11.433 2°36.461 36.2 13.3 33 11.4
2004-01-21 09:03:19 51°11.455 2°36.483 36.2 13.4 32 11.5
2004-01-21 09:03:23 51°11.468 2°36.495 36 13.4 32 11.5
2004-01-21 09:03:29 51°11.487 2°36.513 35.7 13.3 31 11.6
2004-01-21 09:03:33 51°11.499 2°36.526 35.4 13.4 32 11.4
2004-01-21 09:03:39 51°11.519 2°36.545 35.7 13.4 32 11.5
2004-01-21 09:03:44 51°11.534 2°36.56 36.1 13.3 32 11.8
2004-01-21 09:03:47 51°11.543 2°36.57 36.4 13.4 32 11.5
2004-01-21 09:03:54 51°11.566 2°36.591 36.6 13.5 31 11.5
2004-01-21 09:03:59 51°11.581 2°36.607 35.8 13.3 32 11.3
2004-01-21 09:04:03 51°11.594 2°36.619 35.9 13.3 32 11.6
2004-01-21 09:04:08 51°11.61 2°36.635 36.3 13.4 31 11.5
2004-01-21 09:04:14 51°11.629 2°36.653 35.8 13.4 31 11.5
2004-01-21 09:04:19 51°11.644 2°36.668 35.8 13.3 32 11.5
2004-01-21 09:04:23 51°11.657 2°36.681 36.1 13.3 32 11.3
2004-01-21 09:04:28 51°11.673 2°36.696 36.1 13.4 32 11.5
2004-01-21 09:04:31 51°11.682 2°36.705 36 13.3 32 11.5
2004-01-21 09:04:39 51°11.707 2°36.73 36.5 13.3 31 11.5
2004-01-21 09:04:43 51°11.72 2°36.743 36.4 13.4 32 11.4
2004-01-21 09:04:48 51°11.736 2°36.759 36.4 13.4 31 11.6
2004-01-21 09:04:54 51°11.755 2°36.777 36.2 13.3 31 11.6
2004-01-21 09:04:59 51°11.77 2°36.792 36.3 13.4 31 11.4
2004-01-21 09:05:03 51°11.783 2°36.805 35.9 13.4 31 11.4
2004-01-21 09:05:07 51°11.796 2°36.817 36.1 13.4 31 11.3
2004-01-21 09:05:11 51°11.808 2°36.83 36 13.4 31 11.2
2004-01-21 09:05:19 51°11.834 2°36.854 35.5 13.3 32 11.4
2004-01-21 09:05:23 51°11.846 2°36.866 35.8 13.3 31 11.2
2004-01-21 09:05:29 51°11.865 2°36.885 36 13.2 32 11.2
2004-01-21 09:05:33 51°11.877 2°36.898 36.7 13.3 33 11.2
2004-01-21 09:05:39 51°11.896 2°36.917 36.9 13.4 33 11.5
2004-01-21 09:05:43 51°11.909 2°36.93 36.9 13.4 32 11.5
2004-01-21 09:05:49 51°11.928 2°36.949 36.7 13.4 32 11.5
2004-01-21 09:05:51 51°11.934 2°36.955 36.6 13.3 32 11.5
2004-01-21 09:05:59 51°11.959 2°36.979 36.2 13.3 31 11.4
2004-01-21 09:06:03 51°11.972 2°36.992 35.6 13.3 31 11.3
2004-01-21 09:06:09 51°11.991 2°37.01 36 13.3 32 11.3
2004-01-21 09:06:14 51°12.006 2°37.026 36.4 13.3 32 11.3
2004-01-21 09:06:19 51°12.022 2°37.041 36.3 13.3 31 11.5
2004-01-21 09:06:23 51°12.035 2°37.053 35.9 13.3 32 11.5
2004-01-21 09:06:28 51°12.051 2°37.069 36 13.3 31 11.3
2004-01-21 09:06:33 51°12.067 2°37.084 36 13.4 31 11.3
2004-01-21 09:06:39 51°12.086 2°37.102 35.8 13.4 31 11.5
2004-01-21 09:06:44 51°12.102 2°37.117 35.8 13.4 31 11.4